createdAt,value
2022-12-24T00:00:15.201Z,0.00
2022-12-24T00:01:15.047Z,0.00
2022-12-24T00:02:15.051Z,0.00
2022-12-24T00:03:15.041Z,0.00
2022-12-24T00:04:15.005Z,0.00
2022-12-24T00:05:14.973Z,0.00
2022-12-24T00:06:14.998Z,0.00
2022-12-24T00:07:14.970Z,0.00
2022-12-24T00:08:14.915Z,0.00
2022-12-24T00:09:14.950Z,0.00
2022-12-24T00:10:14.878Z,0.00
2022-12-24T00:11:14.896Z,0.00
2022-12-24T00:12:14.932Z,0.00
2022-12-24T00:13:14.910Z,0.00
2022-12-24T00:14:14.815Z,0.00
2022-12-24T00:15:14.849Z,0.00
2022-12-24T00:16:14.901Z,0.00
2022-12-24T00:17:14.978Z,0.00
2022-12-24T00:18:14.903Z,0.00
2022-12-24T00:19:14.811Z,0.00
2022-12-24T00:20:14.739Z,0.00
2022-12-24T00:21:14.808Z,0.00
2022-12-24T00:22:14.719Z,0.00
2022-12-24T00:23:14.737Z,0.00
2022-12-24T00:24:14.756Z,0.00
2022-12-24T00:25:14.688Z,0.00
2022-12-24T00:26:14.694Z,0.00
2022-12-24T00:27:14.696Z,0.00
2022-12-24T00:28:14.632Z,0.00
2022-12-24T00:29:14.669Z,0.00
2022-12-24T00:30:14.745Z,0.00
2022-12-24T00:31:14.723Z,0.00
2022-12-24T00:32:14.582Z,0.00
2022-12-24T00:33:18.156Z,0.00
2022-12-24T00:34:15.563Z,0.00
2022-12-24T00:35:14.569Z,0.00
2022-12-24T00:36:14.664Z,0.00
2022-12-24T00:37:16.908Z,0.00
2022-12-24T00:38:14.529Z,0.00
2022-12-24T00:39:14.549Z,0.00
2022-12-24T00:40:14.471Z,0.00
2022-12-24T00:41:14.517Z,0.00
2022-12-24T00:42:14.571Z,0.00
2022-12-24T00:43:14.467Z,0.00
2022-12-24T00:44:14.446Z,0.00
2022-12-24T00:45:14.459Z,0.00
2022-12-24T00:46:14.450Z,0.00
2022-12-24T00:47:14.411Z,0.00
2022-12-24T00:48:14.433Z,0.00
2022-12-24T00:49:14.384Z,0.00
2022-12-24T00:50:14.375Z,0.00
2022-12-24T00:51:14.423Z,0.00
2022-12-24T00:52:14.314Z,0.00
2022-12-24T00:53:14.369Z,0.00
2022-12-24T00:54:14.395Z,0.00
2022-12-24T00:55:14.295Z,0.00
2022-12-24T00:56:14.281Z,0.00
2022-12-24T00:57:14.273Z,0.00
2022-12-24T00:58:14.251Z,0.00
2022-12-24T00:59:14.246Z,0.00
2022-12-24T01:00:14.357Z,0.00
2022-12-24T01:01:14.300Z,0.00
2022-12-24T01:02:14.316Z,0.00
2022-12-24T01:03:14.298Z,0.00
2022-12-24T01:04:14.159Z,0.00
2022-12-24T01:05:14.190Z,0.00
2022-12-24T01:06:14.157Z,0.00
2022-12-24T01:07:14.138Z,0.00
2022-12-24T01:08:14.124Z,0.00
2022-12-24T01:09:14.121Z,0.00
2022-12-24T01:10:14.093Z,0.00
2022-12-24T01:11:14.105Z,0.00
2022-12-24T01:12:14.072Z,0.00
2022-12-24T01:13:14.097Z,0.00
2022-12-24T01:14:14.019Z,0.00
2022-12-24T01:15:14.032Z,0.00
2022-12-24T01:16:14.117Z,0.00
2022-12-24T01:17:14.035Z,0.00
2022-12-24T01:18:14.002Z,0.00
2022-12-24T01:19:13.983Z,0.00
2022-12-24T01:20:13.986Z,0.00
2022-12-24T01:21:13.995Z,0.00
2022-12-24T01:22:13.936Z,0.00
2022-12-24T01:23:13.948Z,0.00
2022-12-24T01:24:13.993Z,0.00
2022-12-24T01:25:13.928Z,0.00
2022-12-24T01:26:13.863Z,0.00
2022-12-24T01:27:13.861Z,0.00
2022-12-24T01:28:13.851Z,0.00
2022-12-24T01:29:13.845Z,0.00
2022-12-24T01:30:13.945Z,0.00
2022-12-24T01:31:13.888Z,0.00
2022-12-24T01:32:13.783Z,0.00
2022-12-24T01:33:13.796Z,0.00
2022-12-24T01:34:13.775Z,0.00
2022-12-24T01:35:13.788Z,0.00
2022-12-24T01:36:13.842Z,0.00
2022-12-24T01:37:13.762Z,0.00
2022-12-24T01:38:13.699Z,0.00
2022-12-24T01:39:13.718Z,0.00
2022-12-24T01:40:13.701Z,0.00
2022-12-24T01:41:13.685Z,0.00
2022-12-24T01:42:13.707Z,0.00
2022-12-24T01:43:13.686Z,0.00
2022-12-24T01:44:13.606Z,0.00
2022-12-24T01:45:13.662Z,0.00
2022-12-24T01:46:13.597Z,0.00
2022-12-24T01:47:13.591Z,0.00
2022-12-24T01:48:13.694Z,0.00
2022-12-24T01:49:13.598Z,0.00
2022-12-24T01:50:13.546Z,0.00
2022-12-24T01:51:13.544Z,0.00
2022-12-24T01:52:13.525Z,0.00
2022-12-24T01:53:13.517Z,0.00
2022-12-24T01:54:13.526Z,0.00
2022-12-24T01:55:13.521Z,0.00
2022-12-24T01:56:13.455Z,0.00
2022-12-24T01:57:13.478Z,0.00
2022-12-24T01:58:13.410Z,0.00
2022-12-24T01:59:13.446Z,0.00
2022-12-24T02:00:13.449Z,0.00
2022-12-24T02:01:13.529Z,0.00
2022-12-24T02:02:13.509Z,0.00
2022-12-24T02:03:13.514Z,0.00
2022-12-24T02:04:13.332Z,0.00
2022-12-24T02:05:13.391Z,0.00
2022-12-24T02:06:13.425Z,0.00
2022-12-24T02:07:13.325Z,0.00
2022-12-24T02:08:13.300Z,0.00
2022-12-24T02:09:13.293Z,0.00
2022-12-24T02:10:13.308Z,0.00
2022-12-24T02:11:13.316Z,0.00
2022-12-24T02:12:13.333Z,0.00
2022-12-24T02:13:13.288Z,0.00
2022-12-24T02:14:13.205Z,0.00
2022-12-24T02:15:13.206Z,0.00
2022-12-24T02:16:13.258Z,0.00
2022-12-24T02:17:13.187Z,0.00
2022-12-24T02:18:13.283Z,0.00
2022-12-24T02:19:13.173Z,0.00
2022-12-24T02:20:13.141Z,0.00
2022-12-24T02:21:13.146Z,0.00
2022-12-24T02:22:13.116Z,0.00
2022-12-24T02:23:13.142Z,0.00
2022-12-24T02:24:13.178Z,0.00
2022-12-24T02:25:13.105Z,0.00
2022-12-24T02:26:13.047Z,0.00
2022-12-24T02:27:13.073Z,0.00
2022-12-24T02:28:13.037Z,0.00
2022-12-24T02:29:13.044Z,0.00
2022-12-24T02:30:13.043Z,0.00
2022-12-24T02:31:13.062Z,0.00
2022-12-24T02:32:12.959Z,0.00
2022-12-24T02:33:12.995Z,0.00
2022-12-24T02:34:12.921Z,0.00
2022-12-24T02:35:12.943Z,0.00
2022-12-24T02:36:12.953Z,0.00
2022-12-24T02:37:12.949Z,0.00
2022-12-24T02:38:12.870Z,0.00
2022-12-24T02:39:12.885Z,0.00
2022-12-24T02:40:16.508Z,0.00
2022-12-24T02:41:12.861Z,0.00
2022-12-24T02:42:12.878Z,0.00
2022-12-24T02:43:12.874Z,0.00
2022-12-24T02:44:12.806Z,0.00
2022-12-24T02:45:12.837Z,0.00
2022-12-24T02:46:12.889Z,0.00
2022-12-24T02:47:12.786Z,0.00
2022-12-24T02:48:12.871Z,0.00
2022-12-24T02:49:12.745Z,0.00
2022-12-24T02:50:12.732Z,0.00
2022-12-24T02:51:12.784Z,0.00
2022-12-24T02:52:12.686Z,0.00
2022-12-24T02:53:12.694Z,0.00
2022-12-24T02:54:12.793Z,0.00
2022-12-24T02:55:12.703Z,0.00
2022-12-24T02:56:12.641Z,0.00
2022-12-24T02:57:12.667Z,0.00
2022-12-24T02:58:12.607Z,0.00
2022-12-24T02:59:12.614Z,0.00
2022-12-24T03:00:12.613Z,0.00
2022-12-24T03:01:12.704Z,0.00
2022-12-24T03:02:12.689Z,0.00
2022-12-24T03:03:12.582Z,0.00
2022-12-24T03:04:12.526Z,0.00
2022-12-24T03:05:12.563Z,0.00
2022-12-24T03:06:12.528Z,0.00
2022-12-24T03:07:12.509Z,0.00
2022-12-24T03:08:12.494Z,0.00
2022-12-24T03:09:12.482Z,0.00
2022-12-24T03:10:12.469Z,0.00
2022-12-24T03:11:12.477Z,0.00
2022-12-24T03:12:12.520Z,0.00
2022-12-24T03:13:12.450Z,0.00
2022-12-24T03:14:12.382Z,0.00
2022-12-24T03:15:12.411Z,0.00
2022-12-24T03:16:12.407Z,0.00
2022-12-24T03:17:12.370Z,0.00
2022-12-24T03:18:12.405Z,0.00
2022-12-24T03:19:12.377Z,0.00
2022-12-24T03:20:12.313Z,0.00
2022-12-24T03:21:12.340Z,0.00
2022-12-24T03:22:12.282Z,0.00
2022-12-24T03:23:12.283Z,0.00
2022-12-24T03:24:12.311Z,0.00
2022-12-24T03:25:12.296Z,0.00
2022-12-24T03:26:12.213Z,0.00
2022-12-24T03:27:12.234Z,0.00
2022-12-24T03:28:12.235Z,0.00
2022-12-24T03:29:12.215Z,0.00
2022-12-24T03:30:12.220Z,0.00
2022-12-24T03:31:12.313Z,0.00
2022-12-24T03:32:12.152Z,0.00
2022-12-24T03:33:12.177Z,0.00
2022-12-24T03:34:12.124Z,0.00
2022-12-24T03:35:12.137Z,0.00
2022-12-24T03:36:12.145Z,0.00
2022-12-24T03:37:12.107Z,0.00
2022-12-24T03:38:12.105Z,0.00
2022-12-24T03:39:12.104Z,0.00
2022-12-24T03:40:12.029Z,0.00
2022-12-24T03:41:12.041Z,0.00
2022-12-24T03:42:12.073Z,0.00
2022-12-24T03:43:12.045Z,0.00
2022-12-24T03:44:11.983Z,0.00
2022-12-24T03:45:12.026Z,0.00
2022-12-24T03:46:11.960Z,0.00
2022-12-24T03:47:11.969Z,0.00
2022-12-24T03:48:12.089Z,0.00
2022-12-24T03:49:11.947Z,0.00
2022-12-24T03:50:11.928Z,0.00
2022-12-24T03:51:11.936Z,0.00
2022-12-24T03:52:11.861Z,0.00
2022-12-24T03:53:11.912Z,0.00
2022-12-24T03:54:12.024Z,0.00
2022-12-24T03:55:11.865Z,0.00
2022-12-24T03:56:11.898Z,0.00
2022-12-24T03:57:11.862Z,0.00
2022-12-24T03:58:11.786Z,0.00
2022-12-24T03:59:11.799Z,0.00
2022-12-24T04:00:11.902Z,0.00
2022-12-24T04:01:11.903Z,0.00
2022-12-24T04:02:11.970Z,0.00
2022-12-24T04:03:11.834Z,0.00
2022-12-24T04:04:11.718Z,0.00
2022-12-24T04:05:11.742Z,0.00
2022-12-24T04:06:11.694Z,0.00
2022-12-24T04:07:12.651Z,0.00
2022-12-24T04:08:11.682Z,0.00
2022-12-24T04:09:11.666Z,0.00
2022-12-24T04:10:11.659Z,0.00
2022-12-24T04:11:11.671Z,0.00
2022-12-24T04:12:11.639Z,0.00
2022-12-24T04:13:11.606Z,0.00
2022-12-24T04:14:11.610Z,0.00
2022-12-24T04:15:11.560Z,0.00
2022-12-24T04:16:11.649Z,0.00
2022-12-24T04:17:11.538Z,0.00
2022-12-24T04:18:11.602Z,0.00
2022-12-24T04:19:11.537Z,0.00
2022-12-24T04:20:11.516Z,0.00
2022-12-24T04:21:11.518Z,0.00
2022-12-24T04:22:11.496Z,0.00
2022-12-24T04:23:11.447Z,0.00
2022-12-24T04:24:11.517Z,0.00
2022-12-24T04:25:11.416Z,0.00
2022-12-24T04:26:11.461Z,0.00
2022-12-24T04:27:11.432Z,0.00
2022-12-24T04:28:11.404Z,0.00
2022-12-24T04:29:11.372Z,0.00
2022-12-24T04:30:11.441Z,0.00
2022-12-24T04:31:11.358Z,0.00
2022-12-24T04:32:11.463Z,0.00
2022-12-24T04:33:11.336Z,0.00
2022-12-24T04:34:11.345Z,0.00
2022-12-24T04:35:11.308Z,0.00
2022-12-24T04:36:11.365Z,0.00
2022-12-24T04:37:11.271Z,0.00
2022-12-24T04:38:11.302Z,0.00
2022-12-24T04:39:11.251Z,0.00
2022-12-24T04:40:11.251Z,0.00
2022-12-24T04:41:11.231Z,0.00
2022-12-24T04:42:11.256Z,0.00
2022-12-24T04:43:11.191Z,0.00
2022-12-24T04:44:11.214Z,0.00
2022-12-24T04:45:11.172Z,0.00
2022-12-24T04:46:11.233Z,0.00
2022-12-24T04:47:11.130Z,0.00
2022-12-24T04:48:11.184Z,0.00
2022-12-24T04:49:11.087Z,0.00
2022-12-24T04:50:11.144Z,0.00
2022-12-24T04:51:11.091Z,0.00
2022-12-24T04:52:11.088Z,0.00
2022-12-24T04:53:11.081Z,0.00
2022-12-24T04:54:11.097Z,0.00
2022-12-24T04:55:11.007Z,0.00
2022-12-24T04:56:11.059Z,0.00
2022-12-24T04:57:11.002Z,0.00
2022-12-24T04:58:11.027Z,0.00
2022-12-24T04:59:10.991Z,0.00
2022-12-24T05:00:11.011Z,0.00
2022-12-24T05:01:11.027Z,0.00
2022-12-24T05:02:11.233Z,0.00
2022-12-24T05:03:10.981Z,0.00
2022-12-24T05:04:10.911Z,0.00
2022-12-24T05:05:10.924Z,0.00
2022-12-24T05:06:10.921Z,0.00
2022-12-24T05:07:10.841Z,0.00
2022-12-24T05:08:10.899Z,0.00
2022-12-24T05:09:10.830Z,0.00
2022-12-24T05:10:10.874Z,0.00
2022-12-24T05:11:10.819Z,0.00
2022-12-24T05:12:10.940Z,0.00
2022-12-24T05:13:10.800Z,0.00
2022-12-24T05:14:10.785Z,0.00
2022-12-24T05:15:10.777Z,0.00
2022-12-24T05:16:10.872Z,0.00
2022-12-24T05:17:10.827Z,0.00
2022-12-24T05:18:10.781Z,0.00
2022-12-24T05:19:10.709Z,0.00
2022-12-24T05:20:10.699Z,0.00
2022-12-24T05:21:10.720Z,0.00
2022-12-24T05:22:10.679Z,0.00
2022-12-24T05:23:10.642Z,0.00
2022-12-24T05:24:10.773Z,0.00
2022-12-24T05:25:10.616Z,0.00
2022-12-24T05:26:11.023Z,0.00
2022-12-24T05:27:10.613Z,0.00
2022-12-24T05:28:10.596Z,0.00
2022-12-24T05:29:10.580Z,0.00
2022-12-24T05:30:10.705Z,0.00
2022-12-24T05:31:10.593Z,0.00
2022-12-24T05:32:10.588Z,0.00
2022-12-24T05:33:10.527Z,0.00
2022-12-24T05:34:10.498Z,0.00
2022-12-24T05:35:10.481Z,0.00
2022-12-24T05:36:10.635Z,0.00
2022-12-24T05:37:10.471Z,0.00
2022-12-24T05:38:10.506Z,0.00
2022-12-24T05:39:15.379Z,0.00
2022-12-24T05:40:11.423Z,0.00
2022-12-24T05:41:10.409Z,0.00
2022-12-24T05:42:10.551Z,0.00
2022-12-24T05:43:10.375Z,0.00
2022-12-24T05:44:10.409Z,0.00
2022-12-24T05:45:10.338Z,0.00
2022-12-24T05:46:10.421Z,0.00
2022-12-24T05:47:10.335Z,0.00
2022-12-24T05:48:10.347Z,0.00
2022-12-24T05:49:10.294Z,0.00
2022-12-24T05:50:10.331Z,0.00
2022-12-24T05:51:10.288Z,0.00
2022-12-24T05:52:10.283Z,0.00
2022-12-24T05:53:10.258Z,0.00
2022-12-24T05:54:10.382Z,0.00
2022-12-24T05:55:10.217Z,0.00
2022-12-24T05:56:10.984Z,0.00
2022-12-24T05:57:10.176Z,0.00
2022-12-24T05:58:10.223Z,0.00
2022-12-24T05:59:14.376Z,0.00
2022-12-24T06:00:10.290Z,0.00
2022-12-24T06:01:10.241Z,0.00
2022-12-24T06:02:10.208Z,0.00
2022-12-24T06:03:10.113Z,0.00
2022-12-24T06:04:14.218Z,0.00
2022-12-24T06:05:10.178Z,0.00
2022-12-24T06:06:10.118Z,0.00
2022-12-24T06:07:10.068Z,0.00
2022-12-24T06:08:10.406Z,0.00
2022-12-24T06:09:10.013Z,0.00
2022-12-24T06:10:10.065Z,0.00
2022-12-24T06:11:10.028Z,0.00
2022-12-24T06:12:10.129Z,0.00
2022-12-24T06:13:09.985Z,0.00
2022-12-24T06:14:09.993Z,0.00
2022-12-24T06:15:09.934Z,0.00
2022-12-24T06:16:10.023Z,0.00
2022-12-24T06:17:09.904Z,0.00
2022-12-24T06:18:09.995Z,0.00
2022-12-24T06:19:09.924Z,0.00
2022-12-24T06:20:09.895Z,0.00
2022-12-24T06:21:09.878Z,0.00
2022-12-24T06:22:09.886Z,0.00
2022-12-24T06:23:09.823Z,0.00
2022-12-24T06:24:10.001Z,0.00
2022-12-24T06:25:09.792Z,0.00
2022-12-24T06:26:09.843Z,0.00
2022-12-24T06:27:09.801Z,0.00
2022-12-24T06:28:09.786Z,0.00
2022-12-24T06:29:09.754Z,0.00
2022-12-24T06:30:09.788Z,0.00
2022-12-24T06:31:09.766Z,0.00
2022-12-24T06:32:09.761Z,0.00
2022-12-24T06:33:09.708Z,0.00
2022-12-24T06:34:09.723Z,0.00
2022-12-24T06:35:09.689Z,0.00
2022-12-24T06:36:16.655Z,0.00
2022-12-24T06:37:10.628Z,0.00
2022-12-24T06:38:09.679Z,0.00
2022-12-24T06:39:09.642Z,0.00
2022-12-24T06:40:09.639Z,0.00
2022-12-24T06:41:09.624Z,0.00
2022-12-24T06:42:09.719Z,0.00
2022-12-24T06:43:09.551Z,0.00
2022-12-24T06:44:09.578Z,0.00
2022-12-24T06:45:09.538Z,0.00
2022-12-24T06:46:09.623Z,0.00
2022-12-24T06:47:09.518Z,0.00
2022-12-24T06:48:09.631Z,0.00
2022-12-24T06:49:09.506Z,0.00
2022-12-24T06:50:09.501Z,0.00
2022-12-24T06:51:09.441Z,1.00
2022-12-24T06:52:09.508Z,1.00
2022-12-24T06:53:09.433Z,1.00
2022-12-24T06:54:09.458Z,1.00
2022-12-24T06:55:09.376Z,1.00
2022-12-24T06:56:09.452Z,0.00
2022-12-24T06:57:09.367Z,0.00
2022-12-24T06:58:09.417Z,2.00
2022-12-24T06:59:09.399Z,2.00
2022-12-24T07:00:09.400Z,2.00
2022-12-24T07:01:09.359Z,0.00
2022-12-24T07:02:09.548Z,0.00
2022-12-24T07:03:09.294Z,4.00
2022-12-24T07:04:13.154Z,2.00
2022-12-24T07:05:10.321Z,6.00
2022-12-24T07:06:09.293Z,5.00
2022-12-24T07:07:09.284Z,3.00
2022-12-24T07:08:09.248Z,7.00
2022-12-24T07:09:09.207Z,9.00
2022-12-24T07:10:09.237Z,11.00
2022-12-24T07:11:09.236Z,14.00
2022-12-24T07:12:09.212Z,14.00
2022-12-24T07:13:09.167Z,25.00
2022-12-24T07:14:09.177Z,23.00
2022-12-24T07:15:09.123Z,23.00
2022-12-24T07:16:09.280Z,20.00
2022-12-24T07:17:09.361Z,37.00
2022-12-24T07:18:09.149Z,30.00
2022-12-24T07:19:09.094Z,20.00
2022-12-24T07:20:09.083Z,29.00
2022-12-24T07:21:09.082Z,35.00
2022-12-24T07:22:14.993Z,40.00
2022-12-24T07:23:10.031Z,38.00
2022-12-24T07:24:09.051Z,45.00
2022-12-24T07:25:08.984Z,58.00
2022-12-24T07:26:09.035Z,60.00
2022-12-24T07:27:08.985Z,65.00
2022-12-24T07:28:23.869Z,67.00
2022-12-24T07:29:09.950Z,67.00
2022-12-24T07:30:08.977Z,72.00
2022-12-24T07:31:08.922Z,76.00
2022-12-24T07:32:08.943Z,80.00
2022-12-24T07:33:10.374Z,84.00
2022-12-24T07:34:08.959Z,84.00
2022-12-24T07:35:08.890Z,87.00
2022-12-24T07:36:08.882Z,91.00
2022-12-24T07:37:08.820Z,110.00
2022-12-24T07:38:08.860Z,147.00
2022-12-24T07:39:08.811Z,172.00
2022-12-24T07:40:08.851Z,183.00
2022-12-24T07:41:08.773Z,208.00
2022-12-24T07:42:08.807Z,230.00
2022-12-24T07:43:08.739Z,245.00
2022-12-24T07:44:08.786Z,260.00
2022-12-24T07:45:08.729Z,274.00
2022-12-24T07:46:08.818Z,289.00
2022-12-24T07:47:08.757Z,301.00
2022-12-24T07:48:08.696Z,315.00
2022-12-24T07:49:08.660Z,327.00
2022-12-24T07:50:08.700Z,348.00
2022-12-24T07:51:08.628Z,390.00
2022-12-24T07:52:08.803Z,434.00
2022-12-24T07:53:08.634Z,479.00
2022-12-24T07:54:08.625Z,526.00
2022-12-24T07:55:08.581Z,576.00
2022-12-24T07:56:12.668Z,619.00
2022-12-24T07:57:08.597Z,683.00
2022-12-24T07:58:08.600Z,750.00
2022-12-24T07:59:08.543Z,790.00
2022-12-24T08:00:08.536Z,802.00
2022-12-24T08:01:08.534Z,808.00
2022-12-24T08:02:14.151Z,834.00
2022-12-24T08:03:09.713Z,878.00
2022-12-24T08:04:08.599Z,922.00
2022-12-24T08:05:08.467Z,996.00
2022-12-24T08:06:08.470Z,1069.00
2022-12-24T08:07:08.443Z,1096.00
2022-12-24T08:08:08.429Z,1109.00
2022-12-24T08:09:08.516Z,1140.00
2022-12-24T08:10:08.429Z,1168.00
2022-12-24T08:11:08.394Z,1140.00
2022-12-24T08:12:08.373Z,1108.00
2022-12-24T08:13:08.342Z,1118.00
2022-12-24T08:14:08.391Z,1108.00
2022-12-24T08:15:08.341Z,1118.00
2022-12-24T08:16:08.359Z,1159.00
2022-12-24T08:17:08.303Z,1189.00
2022-12-24T08:18:08.283Z,1207.00
2022-12-24T08:19:08.350Z,1225.00
2022-12-24T08:20:08.275Z,1248.00
2022-12-24T08:21:08.258Z,1269.00
2022-12-24T08:22:08.282Z,1318.00
2022-12-24T08:23:08.202Z,1367.00
2022-12-24T08:24:08.327Z,1420.00
2022-12-24T08:25:08.193Z,1449.00
2022-12-24T08:26:08.201Z,1460.00
2022-12-24T08:27:08.295Z,1473.00
2022-12-24T08:28:08.162Z,1516.00
2022-12-24T08:29:08.182Z,1558.00
2022-12-24T08:30:08.097Z,1618.00
2022-12-24T08:31:08.225Z,1652.00
2022-12-24T08:32:08.904Z,1696.00
2022-12-24T08:33:08.132Z,1778.00
2022-12-24T08:34:08.100Z,1840.00
2022-12-24T08:35:08.061Z,1896.00
2022-12-24T08:36:08.050Z,1979.00
2022-12-24T08:37:08.057Z,1994.00
2022-12-24T08:38:08.005Z,2020.00
2022-12-24T08:39:08.066Z,2070.00
2022-12-24T08:40:07.959Z,2109.00
2022-12-24T08:41:07.976Z,2176.00
2022-12-24T08:42:07.966Z,2270.00
2022-12-24T08:43:07.988Z,2312.00
2022-12-24T08:44:07.908Z,2318.00
2022-12-24T08:45:08.012Z,2303.00
2022-12-24T08:46:07.949Z,2320.00
2022-12-24T08:47:07.913Z,2356.00
2022-12-24T08:48:07.904Z,2391.00
2022-12-24T08:49:07.910Z,2407.00
2022-12-24T08:50:07.845Z,2421.00
2022-12-24T08:51:07.901Z,2435.00
2022-12-24T08:52:07.805Z,2447.00
2022-12-24T08:53:07.825Z,2418.00
2022-12-24T08:54:07.819Z,2397.00
2022-12-24T08:55:07.801Z,2393.00
2022-12-24T08:56:07.792Z,2443.00
2022-12-24T08:57:07.933Z,2551.00
2022-12-24T08:58:07.747Z,2670.00
2022-12-24T08:59:07.742Z,2662.00
2022-12-24T09:00:07.764Z,2597.00
2022-12-24T09:01:07.861Z,2548.00
2022-12-24T09:02:07.793Z,2486.00
2022-12-24T09:03:07.894Z,2582.00
2022-12-24T09:04:07.655Z,2688.00
2022-12-24T09:05:07.664Z,2764.00
2022-12-24T09:06:07.661Z,2712.00
2022-12-24T09:07:07.625Z,2539.00
2022-12-24T09:08:07.613Z,2423.00
2022-12-24T09:09:07.763Z,2392.00
2022-12-24T09:10:07.577Z,2527.00
2022-12-24T09:11:07.603Z,2620.00
2022-12-24T09:12:07.581Z,2667.00
2022-12-24T09:13:07.555Z,2753.00
2022-12-24T09:14:07.554Z,2705.00
2022-12-24T09:15:07.890Z,2754.00
2022-12-24T09:16:07.513Z,2735.00
2022-12-24T09:17:07.608Z,2657.00
2022-12-24T09:18:07.486Z,2458.00
2022-12-24T09:19:07.476Z,2256.00
2022-12-24T09:20:07.497Z,2160.00
2022-12-24T09:21:07.509Z,2142.00
2022-12-24T09:22:07.412Z,2116.00
2022-12-24T09:23:07.442Z,1912.00
2022-12-24T09:24:07.388Z,1859.00
2022-12-24T09:25:07.402Z,1525.00
2022-12-24T09:26:07.389Z,1205.00
2022-12-24T09:27:07.404Z,1327.00
2022-12-24T09:28:07.357Z,1814.00
2022-12-24T09:29:07.374Z,2032.00
2022-12-24T09:30:07.304Z,2101.00
2022-12-24T09:31:07.339Z,2417.00
2022-12-24T09:32:07.334Z,2586.00
2022-12-24T09:33:07.349Z,2685.00
2022-12-24T09:34:07.274Z,2701.00
2022-12-24T09:35:07.268Z,2723.00
2022-12-24T09:36:07.255Z,2816.00
2022-12-24T09:37:07.266Z,2874.00
2022-12-24T09:38:07.194Z,2595.00
2022-12-24T09:39:07.332Z,2132.00
2022-12-24T09:40:07.168Z,1733.00
2022-12-24T09:41:09.108Z,1491.00
2022-12-24T09:42:07.169Z,1332.00
2022-12-24T09:43:07.156Z,1132.00
2022-12-24T09:44:07.141Z,1227.00
2022-12-24T09:45:07.274Z,1826.00
2022-12-24T09:46:07.170Z,2438.00
2022-12-24T09:47:10.133Z,2564.00
2022-12-24T09:48:07.089Z,2654.00
2022-12-24T09:49:07.096Z,2850.00
2022-12-24T09:50:07.065Z,3076.00
2022-12-24T09:51:07.117Z,2677.00
2022-12-24T09:52:07.007Z,2314.00
2022-12-24T09:53:07.027Z,2488.00
2022-12-24T09:54:07.003Z,2168.00
2022-12-24T09:55:07.036Z,1801.00
2022-12-24T09:56:06.978Z,1960.00
2022-12-24T09:57:07.033Z,2362.00
2022-12-24T09:58:06.918Z,2578.00
2022-12-24T09:59:06.967Z,2736.00
2022-12-24T10:00:06.900Z,2874.00
2022-12-24T10:01:07.073Z,2915.00
2022-12-24T10:02:07.060Z,2907.00
2022-12-24T10:03:07.143Z,2773.00
2022-12-24T10:04:06.842Z,2606.00
2022-12-24T10:06:32.485Z,0.00
2022-12-24T10:07:17.515Z,1720.00
2022-12-24T10:08:17.516Z,1705.00
2022-12-24T10:09:17.481Z,1842.00
2022-12-24T10:10:17.435Z,1748.00
2022-12-24T10:11:17.474Z,1383.00
2022-12-24T10:12:17.408Z,1004.00
2022-12-24T10:13:18.159Z,987.00
2022-12-24T10:14:17.449Z,1884.00
2022-12-24T10:15:17.398Z,2871.00
2022-12-24T10:16:17.381Z,3452.00
2022-12-24T10:17:17.437Z,3544.00
2022-12-24T10:18:17.372Z,3505.00
2022-12-24T10:19:17.394Z,3610.00
2022-12-24T10:20:17.387Z,3864.00
2022-12-24T10:21:17.977Z,4095.00
2022-12-24T10:22:19.418Z,3609.00
2022-12-24T10:23:22.311Z,3280.00
2022-12-24T10:24:20.163Z,2693.00
2022-12-24T10:25:20.135Z,2444.00
2022-12-24T10:26:18.090Z,2486.00
2022-12-24T10:27:22.501Z,2478.00
2022-12-24T10:28:19.167Z,2216.00
2022-12-24T10:29:17.826Z,2161.00
2022-12-24T10:30:22.038Z,1998.00
2022-12-24T10:31:21.312Z,1969.00
2022-12-24T10:32:26.320Z,1939.00
2022-12-24T10:33:18.139Z,1806.00
2022-12-24T10:34:49.836Z,1752.00
2022-12-24T10:35:46.621Z,1669.00
2022-12-24T10:36:25.321Z,1616.00
2022-12-24T10:38:33.952Z,0.00
2022-12-24T10:39:51.250Z,1987.00
2022-12-24T10:40:31.016Z,2109.00
2022-12-24T10:41:34.575Z,2521.00
2022-12-24T10:42:31.664Z,2862.00
2022-12-24T10:43:34.125Z,3205.00
2022-12-24T10:44:29.285Z,3055.00
2022-12-24T10:45:29.274Z,3229.00
2022-12-24T10:46:55.095Z,3226.00
2022-12-24T10:47:29.216Z,3155.00
2022-12-24T10:48:28.880Z,3038.00
2022-12-24T10:49:29.836Z,2946.00
2022-12-24T10:50:31.152Z,3207.00
2022-12-24T10:51:55.635Z,3885.00
2022-12-24T10:52:30.040Z,5263.00
2022-12-24T10:53:28.826Z,5405.00
2022-12-24T10:54:29.048Z,4936.00
2022-12-24T10:55:28.921Z,5369.00
2022-12-24T10:56:28.731Z,5542.00
2022-12-24T10:57:28.727Z,5212.00
2022-12-24T10:58:28.691Z,5325.00
2022-12-24T10:59:28.752Z,5570.00
2022-12-24T11:00:35.552Z,5584.00
2022-12-24T11:01:29.853Z,5231.00
2022-12-24T11:02:28.855Z,4989.00
2022-12-24T11:03:28.748Z,5074.00
2022-12-24T11:04:28.602Z,5467.00
2022-12-24T11:05:28.796Z,5379.00
2022-12-24T11:06:28.600Z,4652.00
2022-12-24T11:07:28.614Z,4258.00
2022-12-24T11:09:42.797Z,0.00
2022-12-24T11:10:40.538Z,3514.00
2022-12-24T11:11:43.086Z,3037.00
2022-12-24T11:12:52.312Z,2621.00
2022-12-24T11:13:45.325Z,2605.00
2022-12-24T11:14:41.260Z,2479.00
2022-12-24T11:15:54.085Z,2097.00
2022-12-24T11:16:39.982Z,2093.00
2022-12-24T11:17:39.958Z,2175.00
2022-12-24T11:18:43.700Z,2286.00
2022-12-24T11:19:40.937Z,2496.00
2022-12-24T11:20:39.921Z,2519.00
2022-12-24T11:21:39.953Z,2470.00
2022-12-24T11:22:39.884Z,2673.00
2022-12-24T11:23:39.910Z,2965.00
2022-12-24T11:24:43.750Z,2945.00
2022-12-24T11:25:40.877Z,2834.00
2022-12-24T11:26:39.825Z,2952.00
2022-12-24T11:27:39.853Z,2923.00
2022-12-24T11:28:39.818Z,2202.00
2022-12-24T11:29:39.817Z,2360.00
2022-12-24T11:30:39.836Z,2900.00
2022-12-24T11:31:39.855Z,2859.00
2022-12-24T11:32:39.745Z,2840.00
2022-12-24T11:33:39.780Z,2440.00
2022-12-24T11:34:39.717Z,2517.00
2022-12-24T11:35:39.760Z,2215.00
2022-12-24T11:36:39.756Z,1678.00
2022-12-24T11:37:39.705Z,1379.00
2022-12-24T11:38:39.691Z,1342.00
2022-12-24T11:39:39.684Z,1627.00
2022-12-24T11:40:39.637Z,1989.00
2022-12-24T11:41:39.683Z,2302.00
2022-12-24T11:42:39.754Z,2459.00
2022-12-24T11:43:39.618Z,2268.00
2022-12-24T11:44:39.594Z,2519.00
2022-12-24T11:45:39.631Z,2718.00
2022-12-24T11:46:39.694Z,2747.00
2022-12-24T11:47:39.613Z,2989.00
2022-12-24T11:48:39.605Z,2996.00
2022-12-24T11:49:39.549Z,2642.00
2022-12-24T11:50:39.527Z,2502.00
2022-12-24T11:51:39.518Z,2433.00
2022-12-24T11:52:39.481Z,2077.00
2022-12-24T11:53:39.540Z,1929.00
2022-12-24T11:54:39.941Z,1897.00
2022-12-24T11:55:39.514Z,2007.00
2022-12-24T11:56:40.218Z,2075.00
2022-12-24T11:57:39.441Z,1899.00
2022-12-24T11:58:39.431Z,1870.00
2022-12-24T11:59:39.411Z,1551.00
2022-12-24T12:00:39.480Z,1262.00
2022-12-24T12:01:39.396Z,1015.00
2022-12-24T12:02:39.431Z,791.00
2022-12-24T12:03:39.380Z,924.00
2022-12-24T12:04:39.342Z,785.00
2022-12-24T12:05:39.336Z,618.00
2022-12-24T12:06:39.433Z,708.00
2022-12-24T12:07:39.325Z,818.00
2022-12-24T12:08:39.323Z,779.00
2022-12-24T12:09:39.257Z,641.00
2022-12-24T12:10:39.308Z,862.00
2022-12-24T12:11:40.021Z,1108.00
2022-12-24T12:12:39.307Z,1122.00
2022-12-24T12:13:39.243Z,1192.00
2022-12-24T12:14:39.239Z,1281.00
2022-12-24T12:15:39.176Z,1310.00
2022-12-24T12:16:39.204Z,1255.00
2022-12-24T12:17:39.178Z,1267.00
2022-12-24T12:18:39.280Z,1212.00
2022-12-24T12:19:39.145Z,1242.00
2022-12-24T12:20:39.165Z,1326.00
2022-12-24T12:21:39.113Z,1340.00
2022-12-24T12:22:39.183Z,1452.00
2022-12-24T12:23:39.101Z,1384.00
2022-12-24T12:24:39.229Z,1349.00
2022-12-24T12:25:39.078Z,1199.00
2022-12-24T12:26:39.059Z,1144.00
2022-12-24T12:27:39.046Z,1137.00
2022-12-24T12:28:39.077Z,1032.00
2022-12-24T12:29:39.010Z,1177.00
2022-12-24T12:30:39.123Z,1282.00
2022-12-24T12:31:39.062Z,1037.00
2022-12-24T12:32:39.036Z,1087.00
2022-12-24T12:33:38.947Z,1214.00
2022-12-24T12:34:38.974Z,1420.00
2022-12-24T12:35:38.926Z,1814.00
2022-12-24T12:36:39.056Z,2149.00
2022-12-24T12:37:38.910Z,2183.00
2022-12-24T12:38:38.915Z,1942.00
2022-12-24T12:39:38.948Z,1812.00
2022-12-24T12:40:38.911Z,1725.00
2022-12-24T12:41:38.886Z,1544.00
2022-12-24T12:42:38.900Z,1596.00
2022-12-24T12:43:38.838Z,2093.00
2022-12-24T12:44:38.824Z,2616.00
2022-12-24T12:45:38.801Z,3114.00
2022-12-24T12:46:38.859Z,2986.00
2022-12-24T12:47:38.764Z,3049.00
2022-12-24T12:48:38.910Z,2828.00
2022-12-24T12:49:38.743Z,2644.00
2022-12-24T12:50:38.736Z,1682.00